KSCH/SCH METAR and TAF weather

Enter ICAO airport designator
Station Type Date Time Source
KSCH METAR 2019/02/21 15:45 UTC NOAA

KSCH 211545Z 23006KT 10SM OVC038 04/M01 A2989


Station Type Date Time Source
KSCH Decoded METAR 2019/02/21 15:45 UTC NOAA

Schenectady Airport, NY, United States (KSCH) 42-51N 073-56W
Feb 21, 2019 - 10:45 AM EST / 2019.02.21 1545 UTC
Wind: from the SW (230 degrees) at 7 MPH (6 KT):0
Visibility: 10 mile(s):0
Sky conditions: overcast
Temperature: 39 F (4 C)
Dew Point: 30 F (-1 C)
Relative Humidity: 69%
Pressure (altimeter): 29.89 in. Hg (1012 hPa)
ob: KSCH 211545Z 23006KT 10SM OVC038 04/M01 A2989
cycle: 16

Station Type Date Time Source
KSCH TAF UTC NOAA

Error!


Example: see airport list